createdAt,value
2022-08-20T00:00:32.317Z,82.23
2022-08-20T00:01:32.350Z,81.87
2022-08-20T00:02:32.314Z,82.07
2022-08-20T00:03:32.425Z,81.98
2022-08-20T00:04:32.271Z,82.23
2022-08-20T00:05:32.265Z,82.03
2022-08-20T00:06:32.250Z,82.03
2022-08-20T00:07:32.256Z,81.98
2022-08-20T00:08:32.235Z,82.07
2022-08-20T00:09:32.214Z,82.07
2022-08-20T00:10:32.211Z,82.77
2022-08-20T00:11:32.192Z,82.21
2022-08-20T00:12:32.195Z,82.57
2022-08-20T00:13:32.181Z,82.97
2022-08-20T00:14:33.864Z,82.97
2022-08-20T00:15:32.179Z,83.07
2022-08-20T00:16:32.137Z,83.11
2022-08-20T00:17:32.140Z,83.11
2022-08-20T00:18:32.116Z,83.77
2022-08-20T00:19:32.104Z,83.61
2022-08-20T00:20:32.100Z,83.77
2022-08-20T00:21:32.115Z,83.91
2022-08-20T00:22:32.085Z,83.81
2022-08-20T00:23:32.060Z,84.31
2022-08-20T00:24:32.048Z,84.47
2022-08-20T00:25:32.046Z,85.21
2022-08-20T00:26:32.034Z,85.31
2022-08-20T00:27:32.064Z,85.31
2022-08-20T00:28:32.012Z,85.01
2022-08-20T00:29:31.998Z,85.51
2022-08-20T00:30:31.985Z,85.35
2022-08-20T00:31:31.970Z,85.85
2022-08-20T00:32:31.973Z,85.45
2022-08-20T00:33:31.956Z,85.85
2022-08-20T00:34:31.937Z,85.75
2022-08-20T00:35:31.936Z,86.55
2022-08-20T00:36:32.690Z,86.49
2022-08-20T00:37:31.924Z,86.09
2022-08-20T00:38:31.901Z,85.55
2022-08-20T00:39:31.930Z,85.49
2022-08-20T00:40:31.873Z,85.59
2022-08-20T00:41:31.866Z,85.15
2022-08-20T00:42:31.877Z,85.55
2022-08-20T00:43:31.842Z,85.39
2022-08-20T00:44:31.836Z,85.49
2022-08-20T00:45:31.822Z,85.39
2022-08-20T00:46:32.206Z,85.89
2022-08-20T00:47:31.819Z,84.99
2022-08-20T00:48:31.794Z,84.79
2022-08-20T00:49:31.781Z,84.69
2022-08-20T00:50:31.762Z,85.49
2022-08-20T00:51:31.757Z,85.29
2022-08-20T00:52:31.761Z,85.39
2022-08-20T00:53:31.733Z,85.89
2022-08-20T00:54:31.718Z,85.89
2022-08-20T00:55:31.910Z,85.63
2022-08-20T00:56:31.704Z,85.49
2022-08-20T00:57:51.222Z,86.09
2022-08-20T00:58:32.695Z,85.29
2022-08-20T00:59:31.661Z,85.29
2022-08-20T01:00:31.659Z,85.79
2022-08-20T01:01:31.685Z,85.29
2022-08-20T01:02:31.637Z,85.83
2022-08-20T01:03:31.629Z,85.29
2022-08-20T01:04:31.619Z,86.39
2022-08-20T01:05:31.605Z,85.43
2022-08-20T01:06:31.598Z,85.43
2022-08-20T01:07:31.573Z,85.57
2022-08-20T01:08:31.585Z,85.33
2022-08-20T01:09:49.784Z,85.43
2022-08-20T01:10:32.548Z,85.43
2022-08-20T01:11:31.540Z,85.77
2022-08-20T01:12:32.529Z,85.97
2022-08-20T01:13:31.520Z,85.87
2022-08-20T01:14:31.503Z,85.57
2022-08-20T01:15:31.492Z,85.37
2022-08-20T01:16:31.481Z,86.37
2022-08-20T01:17:31.467Z,86.37
2022-08-20T01:18:31.473Z,86.47
2022-08-20T01:19:31.445Z,86.27
2022-08-20T01:20:31.435Z,86.18
2022-08-20T01:21:31.415Z,86.33
2022-08-20T01:22:31.405Z,86.57
2022-08-20T01:23:31.411Z,86.37
2022-08-20T01:24:31.390Z,86.27
2022-08-20T01:25:31.377Z,86.87
2022-08-20T01:26:31.366Z,86.68
2022-08-20T01:27:31.349Z,86.68
2022-08-20T01:28:31.372Z,86.57
2022-08-20T01:29:31.333Z,86.37
2022-08-20T01:30:31.320Z,86.87
2022-08-20T01:31:31.311Z,86.87
2022-08-20T01:32:31.290Z,87.07
2022-08-20T01:33:31.297Z,86.77
2022-08-20T01:34:31.278Z,86.37
2022-08-20T01:35:31.260Z,86.77
2022-08-20T01:36:31.247Z,86.87
2022-08-20T01:37:31.464Z,86.37
2022-08-20T01:38:31.251Z,86.68
2022-08-20T01:39:31.212Z,86.47
2022-08-20T01:40:31.209Z,86.11
2022-08-20T01:41:31.191Z,86.27
2022-08-20T01:42:31.189Z,86.07
2022-08-20T01:43:32.263Z,86.82
2022-08-20T01:44:32.162Z,86.52
2022-08-20T01:45:31.147Z,86.11
2022-08-20T01:46:31.143Z,86.91
2022-08-20T01:47:31.131Z,86.32
2022-08-20T01:48:31.128Z,87.21
2022-08-20T01:49:31.111Z,86.32
2022-08-20T01:50:31.093Z,86.91
2022-08-20T01:51:31.077Z,86.61
2022-08-20T01:52:31.065Z,86.91
2022-08-20T01:53:31.069Z,86.82
2022-08-20T01:54:31.042Z,86.52
2022-08-20T01:55:31.039Z,86.76
2022-08-20T01:56:31.020Z,87.26
2022-08-20T01:57:31.030Z,86.96
2022-08-20T01:58:31.009Z,86.35
2022-08-20T01:59:30.990Z,86.55
2022-08-20T02:00:30.975Z,87.26
2022-08-20T02:01:31.029Z,86.66
2022-08-20T02:02:30.951Z,86.76
2022-08-20T02:03:36.292Z,86.66
2022-08-20T02:04:31.936Z,87.05
2022-08-20T02:05:30.926Z,86.96
2022-08-20T02:06:30.908Z,86.66
2022-08-20T02:07:30.897Z,86.25
2022-08-20T02:08:30.903Z,86.55
2022-08-20T02:09:30.883Z,86.55
2022-08-20T02:10:31.544Z,86.66
2022-08-20T02:11:30.866Z,86.66
2022-08-20T02:12:30.857Z,87.26
2022-08-20T02:13:30.855Z,87.16
2022-08-20T02:14:30.842Z,86.35
2022-08-20T02:15:37.088Z,86.69
2022-08-20T02:16:31.815Z,87.30
2022-08-20T02:17:30.790Z,87.16
2022-08-20T02:18:30.791Z,87.00
2022-08-20T02:19:30.767Z,86.85
2022-08-20T02:20:30.757Z,87.00
2022-08-20T02:21:30.743Z,87.50
2022-08-20T02:22:30.737Z,87.10
2022-08-20T02:23:30.738Z,87.20
2022-08-20T02:24:30.716Z,87.50
2022-08-20T02:25:30.699Z,87.30
2022-08-20T02:26:30.682Z,87.00
2022-08-20T02:27:30.671Z,87.50
2022-08-20T02:28:30.675Z,86.90
2022-08-20T02:29:30.655Z,86.90
2022-08-20T02:30:30.637Z,87.00
2022-08-20T02:31:34.717Z,87.20
2022-08-20T02:32:34.018Z,87.40
2022-08-20T02:33:30.618Z,87.40
2022-08-20T02:34:30.595Z,87.20
2022-08-20T02:35:30.587Z,87.50
2022-08-20T02:36:30.576Z,86.90
2022-08-20T02:37:30.558Z,86.80
2022-08-20T02:38:30.570Z,87.10
2022-08-20T02:39:30.540Z,86.90
2022-08-20T02:40:31.424Z,87.20
2022-08-20T02:41:30.521Z,86.80
2022-08-20T02:42:30.507Z,87.10
2022-08-20T02:43:30.528Z,87.10
2022-08-20T02:44:30.478Z,87.10
2022-08-20T02:45:30.470Z,87.20
2022-08-20T02:46:30.466Z,87.00
2022-08-20T02:47:30.454Z,87.00
2022-08-20T02:48:30.436Z,86.80
2022-08-20T02:49:30.445Z,87.10
2022-08-20T02:50:30.414Z,87.50
2022-08-20T02:51:30.790Z,87.80
2022-08-20T02:52:30.390Z,87.70
2022-08-20T02:53:30.395Z,88.20
2022-08-20T02:54:30.390Z,87.90
2022-08-20T02:55:30.363Z,88.00
2022-08-20T02:56:30.344Z,87.50
2022-08-20T02:57:30.339Z,88.00
2022-08-20T02:58:30.355Z,87.70
2022-08-20T02:59:30.331Z,87.90
2022-08-20T03:00:30.301Z,87.40
2022-08-20T03:01:31.404Z,87.70
2022-08-20T03:02:30.282Z,87.80
2022-08-20T03:03:30.267Z,87.80
2022-08-20T03:04:30.275Z,88.00
2022-08-20T03:05:30.252Z,87.70
2022-08-20T03:06:30.237Z,87.50
2022-08-20T03:07:30.233Z,87.70
2022-08-20T03:08:30.209Z,87.90
2022-08-20T03:09:30.220Z,87.50
2022-08-20T03:10:30.192Z,87.70
2022-08-20T03:11:30.181Z,87.80
2022-08-20T03:12:30.161Z,87.70
2022-08-20T03:13:30.159Z,87.50
2022-08-20T03:14:30.158Z,87.70
2022-08-20T03:15:30.138Z,87.80
2022-08-20T03:16:30.123Z,87.90
2022-08-20T03:17:30.115Z,87.90
2022-08-20T03:18:30.094Z,87.90
2022-08-20T03:19:30.105Z,87.90
2022-08-20T03:20:30.079Z,87.70
2022-08-20T03:21:30.062Z,87.86
2022-08-20T03:22:30.049Z,87.70
2022-08-20T03:23:30.049Z,87.40
2022-08-20T03:24:30.048Z,87.90
2022-08-20T03:25:30.024Z,87.60
2022-08-20T03:26:30.007Z,87.96
2022-08-20T03:27:32.666Z,87.96
2022-08-20T03:28:30.992Z,88.80
2022-08-20T03:29:29.992Z,88.30
2022-08-20T03:30:29.959Z,88.20
2022-08-20T03:31:29.955Z,88.70
2022-08-20T03:32:29.949Z,88.30
2022-08-20T03:33:29.925Z,88.46
2022-08-20T03:34:29.933Z,88.90
2022-08-20T03:35:29.916Z,88.76
2022-08-20T03:36:29.897Z,89.40
2022-08-20T03:37:29.902Z,89.61
2022-08-20T03:38:32.863Z,89.50
2022-08-20T03:39:29.861Z,89.40
2022-08-20T03:40:29.860Z,89.61
2022-08-20T03:41:29.837Z,89.81
2022-08-20T03:42:29.828Z,89.30
2022-08-20T03:43:29.821Z,89.81
2022-08-20T03:44:29.803Z,89.40
2022-08-20T03:45:29.817Z,89.40
2022-08-20T03:46:29.790Z,89.40
2022-08-20T03:47:29.777Z,89.40
2022-08-20T03:48:29.770Z,89.40
2022-08-20T03:49:29.748Z,89.50
2022-08-20T03:50:29.759Z,89.81
2022-08-20T03:51:29.727Z,89.81
2022-08-20T03:52:29.722Z,89.00
2022-08-20T03:53:29.709Z,88.50
2022-08-20T03:54:31.885Z,88.70
2022-08-20T03:55:29.694Z,89.11
2022-08-20T03:56:29.677Z,89.04
2022-08-20T03:57:29.665Z,88.70
2022-08-20T03:58:34.577Z,88.70
2022-08-20T03:59:30.642Z,88.80
2022-08-20T04:00:29.674Z,88.80
2022-08-20T04:01:45.373Z,89.11
2022-08-20T04:02:30.601Z,89.50
2022-08-20T04:03:29.591Z,89.50
2022-08-20T04:04:29.587Z,89.61
2022-08-20T04:05:29.577Z,89.40
2022-08-20T04:06:29.573Z,89.40
2022-08-20T04:07:29.545Z,88.90
2022-08-20T04:08:29.545Z,89.11
2022-08-20T04:09:29.534Z,89.00
2022-08-20T04:10:29.509Z,89.04
2022-08-20T04:11:29.516Z,88.95
2022-08-20T04:12:29.493Z,89.14
2022-08-20T04:13:29.477Z,89.50
2022-08-20T04:14:30.094Z,89.40
2022-08-20T04:15:29.465Z,89.61
2022-08-20T04:16:29.455Z,89.45
2022-08-20T04:17:29.464Z,89.40
2022-08-20T04:18:29.419Z,89.54
2022-08-20T04:19:34.137Z,89.61
2022-08-20T04:20:29.407Z,89.50
2022-08-20T04:21:29.624Z,89.40
2022-08-20T04:22:29.384Z,89.50
2022-08-20T04:23:29.365Z,89.40
2022-08-20T04:24:32.434Z,89.54
2022-08-20T04:25:29.809Z,89.40
2022-08-20T04:26:29.345Z,89.61
2022-08-20T04:27:29.324Z,89.81
2022-08-20T04:28:29.317Z,89.61
2022-08-20T04:29:32.107Z,89.40
2022-08-20T04:30:29.286Z,90.31
2022-08-20T04:31:29.294Z,89.90
2022-08-20T04:32:29.276Z,90.31
2022-08-20T04:33:33.454Z,90.70
2022-08-20T04:34:30.247Z,90.81
2022-08-20T04:35:29.281Z,90.91
2022-08-20T04:36:29.218Z,91.71
2022-08-20T04:37:29.214Z,91.41
2022-08-20T04:38:49.839Z,91.61
2022-08-20T04:39:30.189Z,92.11
2022-08-20T04:40:29.181Z,91.71
2022-08-20T04:41:29.176Z,92.21
2022-08-20T04:42:29.150Z,91.91
2022-08-20T04:43:29.140Z,91.61
2022-08-20T04:44:29.132Z,91.65
2022-08-20T04:45:29.116Z,91.75
2022-08-20T04:46:29.220Z,91.96
2022-08-20T04:47:34.680Z,91.75
2022-08-20T04:48:30.085Z,91.96
2022-08-20T04:49:29.074Z,92.66
2022-08-20T04:50:29.067Z,92.15
2022-08-20T04:51:29.076Z,92.80
2022-08-20T04:52:29.041Z,92.50
2022-08-20T04:53:29.027Z,92.60
2022-08-20T04:54:29.017Z,93.00
2022-08-20T04:55:29.006Z,92.85
2022-08-20T04:56:29.007Z,93.00
2022-08-20T04:57:28.983Z,92.90
2022-08-20T04:58:28.971Z,92.80
2022-08-20T04:59:28.967Z,94.00
2022-08-20T05:00:28.948Z,93.80
2022-08-20T05:01:29.062Z,94.00
2022-08-20T05:02:28.925Z,93.00
2022-08-20T05:03:28.928Z,93.10
2022-08-20T05:04:28.901Z,93.50
2022-08-20T05:05:28.899Z,93.30
2022-08-20T05:06:28.897Z,93.40
2022-08-20T05:07:28.879Z,93.90
2022-08-20T05:08:28.858Z,93.40
2022-08-20T05:09:28.854Z,93.10
2022-08-20T05:10:28.835Z,93.30
2022-08-20T05:11:35.614Z,93.50
2022-08-20T05:12:29.817Z,93.60
2022-08-20T05:13:28.810Z,93.60
2022-08-20T05:14:28.790Z,93.10
2022-08-20T05:15:28.786Z,93.20
2022-08-20T05:16:28.788Z,93.40
2022-08-20T05:17:28.764Z,93.00
2022-08-20T05:18:28.745Z,94.00
2022-08-20T05:19:28.744Z,93.10
2022-08-20T05:20:28.723Z,92.90
2022-08-20T05:21:28.734Z,93.00
2022-08-20T05:22:29.511Z,93.80
2022-08-20T05:23:28.692Z,93.20
2022-08-20T05:24:28.678Z,93.40
2022-08-20T05:25:28.678Z,93.30
2022-08-20T05:26:28.676Z,93.30
2022-08-20T05:27:28.644Z,93.10
2022-08-20T05:28:28.634Z,93.50
2022-08-20T05:29:28.644Z,93.70
2022-08-20T05:30:28.616Z,93.70
2022-08-20T05:31:31.648Z,94.00
2022-08-20T05:32:28.593Z,93.60
2022-08-20T05:33:28.576Z,94.00
2022-08-20T05:34:28.564Z,94.10
2022-08-20T05:35:28.554Z,93.60
2022-08-20T05:36:28.554Z,94.20
2022-08-20T05:37:28.551Z,94.51
2022-08-20T05:38:28.526Z,94.31
2022-08-20T05:39:28.509Z,94.31
2022-08-20T05:40:28.503Z,94.20
2022-08-20T05:41:29.670Z,94.71
2022-08-20T05:42:28.497Z,94.51
2022-08-20T05:43:28.465Z,94.10
2022-08-20T05:44:28.454Z,94.10
2022-08-20T05:45:28.448Z,93.40
2022-08-20T05:46:28.431Z,93.40
2022-08-20T05:47:28.435Z,93.70
2022-08-20T05:48:28.416Z,93.90
2022-08-20T05:49:28.397Z,93.80
2022-08-20T05:50:28.387Z,93.50
2022-08-20T05:51:28.552Z,93.80
2022-08-20T05:52:28.391Z,93.70
2022-08-20T05:53:28.360Z,93.80
2022-08-20T05:54:28.342Z,93.80
2022-08-20T05:55:28.329Z,93.70
2022-08-20T05:56:28.330Z,93.70
2022-08-20T05:57:28.327Z,93.70
2022-08-20T05:58:28.297Z,94.40
2022-08-20T05:59:28.293Z,93.50
2022-08-20T06:00:28.420Z,93.70
2022-08-20T06:01:28.441Z,93.40
2022-08-20T06:02:28.277Z,92.80
2022-08-20T06:03:28.247Z,92.90
2022-08-20T06:04:28.408Z,92.90
2022-08-20T06:05:28.225Z,93.10
2022-08-20T06:06:45.290Z,92.74
2022-08-20T06:07:29.219Z,92.65
2022-08-20T06:08:28.185Z,92.74
2022-08-20T06:09:31.724Z,92.65
2022-08-20T06:10:28.212Z,92.70
2022-08-20T06:11:28.158Z,92.84
2022-08-20T06:12:28.167Z,92.74
2022-08-20T06:13:28.130Z,92.84
2022-08-20T06:14:28.143Z,92.84
2022-08-20T06:15:28.143Z,92.65
2022-08-20T06:16:29.019Z,92.84
2022-08-20T06:17:28.106Z,92.65
2022-08-20T06:18:29.083Z,92.74
2022-08-20T06:19:32.374Z,92.14
2022-08-20T06:20:28.059Z,91.94
2022-08-20T06:21:28.037Z,92.65
2022-08-20T06:22:28.042Z,92.24
2022-08-20T06:23:28.014Z,92.54
2022-08-20T06:24:29.006Z,92.65
2022-08-20T06:25:28.004Z,92.65
2022-08-20T06:26:30.335Z,92.44
2022-08-20T06:27:27.985Z,92.20
2022-08-20T06:28:27.963Z,92.44
2022-08-20T06:29:27.958Z,92.30
2022-08-20T06:30:28.004Z,91.84
2022-08-20T06:31:27.951Z,91.74
2022-08-20T06:32:32.069Z,91.64
2022-08-20T06:33:27.914Z,91.74
2022-08-20T06:34:27.899Z,92.34
2022-08-20T06:35:27.889Z,91.19
2022-08-20T06:36:27.870Z,91.44
2022-08-20T06:37:31.124Z,91.34
2022-08-20T06:38:27.850Z,90.94
2022-08-20T06:39:27.843Z,91.34
2022-08-20T06:40:27.838Z,91.24
2022-08-20T06:41:27.985Z,91.84
2022-08-20T06:42:28.831Z,91.44
2022-08-20T06:43:27.795Z,91.64
2022-08-20T06:44:27.797Z,91.34
2022-08-20T06:45:27.769Z,91.64
2022-08-20T06:46:27.758Z,91.64
2022-08-20T06:47:27.757Z,91.84
2022-08-20T06:48:27.748Z,91.60
2022-08-20T06:49:27.741Z,91.34
2022-08-20T06:50:28.730Z,91.14
2022-08-20T06:51:27.712Z,91.80
2022-08-20T06:52:42.832Z,91.19
2022-08-20T06:53:28.699Z,91.44
2022-08-20T06:54:28.602Z,91.60
2022-08-20T06:55:27.656Z,91.80
2022-08-20T06:56:27.652Z,91.14
2022-08-20T06:57:27.647Z,90.69
2022-08-20T06:58:38.481Z,90.79
2022-08-20T06:59:28.612Z,90.49
2022-08-20T07:00:27.638Z,90.19
2022-08-20T07:01:27.662Z,90.49
2022-08-20T07:02:30.198Z,90.05
2022-08-20T07:03:27.578Z,89.69
2022-08-20T07:04:27.567Z,89.79
2022-08-20T07:05:27.546Z,89.99
2022-08-20T07:06:27.538Z,89.49
2022-08-20T07:07:27.537Z,89.54
2022-08-20T07:08:27.517Z,88.75
2022-08-20T07:09:27.510Z,88.95
2022-08-20T07:10:27.498Z,89.04
2022-08-20T07:11:28.689Z,88.89
2022-08-20T07:12:27.506Z,89.04
2022-08-20T07:13:27.464Z,89.04
2022-08-20T07:14:27.450Z,88.84
2022-08-20T07:15:27.441Z,88.84
2022-08-20T07:16:27.478Z,88.79
2022-08-20T07:17:27.422Z,88.24
2022-08-20T07:18:28.389Z,88.95
2022-08-20T07:19:27.389Z,88.14
2022-08-20T07:20:27.385Z,88.14
2022-08-20T07:21:27.374Z,87.74
2022-08-20T07:22:27.371Z,87.94
2022-08-20T07:23:27.352Z,87.74
2022-08-20T07:24:33.251Z,87.44
2022-08-20T07:25:28.328Z,86.44
2022-08-20T07:26:27.311Z,86.54
2022-08-20T07:27:27.312Z,86.50
2022-08-20T07:28:27.302Z,86.74
2022-08-20T07:29:27.282Z,86.33
2022-08-20T07:30:27.272Z,86.54
2022-08-20T07:31:27.255Z,86.19
2022-08-20T07:32:28.917Z,86.40
2022-08-20T07:33:28.307Z,86.50
2022-08-20T07:34:27.220Z,86.30
2022-08-20T07:35:27.213Z,85.99
2022-08-20T07:36:27.196Z,86.50
2022-08-20T07:37:27.196Z,85.49
2022-08-20T07:38:27.174Z,85.39
2022-08-20T07:39:28.522Z,85.39
2022-08-20T07:40:27.288Z,84.65
2022-08-20T07:41:27.149Z,83.95
2022-08-20T07:42:27.151Z,84.85
2022-08-20T07:43:27.118Z,84.75
2022-08-20T07:44:30.985Z,85.25
2022-08-20T07:45:27.100Z,83.95
2022-08-20T07:46:31.287Z,83.95
2022-08-20T07:47:27.088Z,84.01
2022-08-20T07:48:30.922Z,83.51
2022-08-20T07:49:27.052Z,84.01
2022-08-20T07:50:27.051Z,83.77
2022-08-20T07:51:27.030Z,83.77
2022-08-20T07:52:27.032Z,83.13
2022-08-20T07:53:27.006Z,82.33
2022-08-20T07:54:27.003Z,81.63
2022-08-20T07:55:26.982Z,81.43
2022-08-20T07:56:28.152Z,81.79
2022-08-20T07:57:26.982Z,81.29
2022-08-20T07:58:33.086Z,81.03
2022-08-20T07:59:27.945Z,79.59
2022-08-20T08:00:26.936Z,80.09
2022-08-20T08:01:27.007Z,79.59
2022-08-20T08:02:26.928Z,78.75
2022-08-20T08:03:39.537Z,78.75
2022-08-20T08:04:27.891Z,80.05
2022-08-20T08:05:26.875Z,79.46
2022-08-20T08:06:29.437Z,78.19
2022-08-20T08:07:26.858Z,77.29
2022-08-20T08:08:26.855Z,78.09
2022-08-20T08:09:26.826Z,77.95
2022-08-20T08:10:26.821Z,78.19
2022-08-20T08:11:26.812Z,77.99
2022-08-20T08:12:26.793Z,77.99
2022-08-20T08:13:26.803Z,77.39
2022-08-20T08:14:26.783Z,78.23
2022-08-20T08:15:26.760Z,78.33
2022-08-20T08:16:26.753Z,78.63
2022-08-20T08:17:26.736Z,78.93
2022-08-20T08:18:30.067Z,78.09
2022-08-20T08:19:27.711Z,78.09
2022-08-20T08:20:26.713Z,78.49
2022-08-20T08:21:26.692Z,77.59
2022-08-20T08:22:26.680Z,77.99
2022-08-20T08:23:31.676Z,78.19
2022-08-20T08:24:28.622Z,78.19
2022-08-20T08:25:26.643Z,77.86
2022-08-20T08:26:26.634Z,77.95
2022-08-20T08:27:26.624Z,78.16
2022-08-20T08:28:26.636Z,77.32
2022-08-20T08:29:26.613Z,76.92
2022-08-20T08:30:26.597Z,76.42
2022-08-20T08:31:26.635Z,76.68
2022-08-20T08:32:26.574Z,77.18
2022-08-20T08:33:26.574Z,76.98
2022-08-20T08:34:26.545Z,76.88
2022-08-20T08:35:26.545Z,76.68
2022-08-20T08:36:26.527Z,76.18
2022-08-20T08:37:30.454Z,76.48
2022-08-20T08:38:26.517Z,76.78
2022-08-20T08:39:26.492Z,76.58
2022-08-20T08:40:27.477Z,77.62
2022-08-20T08:41:26.479Z,77.28
2022-08-20T08:42:26.454Z,77.22
2022-08-20T08:43:26.460Z,76.92
2022-08-20T08:44:27.436Z,77.62
2022-08-20T08:45:26.424Z,77.12
2022-08-20T08:46:26.415Z,77.92
2022-08-20T08:47:26.403Z,77.18
2022-08-20T08:48:26.401Z,77.22
2022-08-20T08:49:33.961Z,76.52
2022-08-20T08:50:50.112Z,77.02
2022-08-20T08:51:27.359Z,76.62
2022-08-20T08:52:26.343Z,76.95
2022-08-20T08:53:26.351Z,76.72
2022-08-20T08:54:26.322Z,77.22
2022-08-20T08:55:26.315Z,77.51
2022-08-20T08:56:26.299Z,77.66
2022-08-20T08:57:26.288Z,76.95
2022-08-20T08:58:26.295Z,77.75
2022-08-20T08:59:26.271Z,76.26
2022-08-20T09:00:27.260Z,77.36
2022-08-20T09:01:55.658Z,77.66
2022-08-20T09:02:27.287Z,76.86
2022-08-20T09:03:26.236Z,76.95
2022-08-20T09:04:26.217Z,76.76
2022-08-20T09:05:26.197Z,76.59
2022-08-20T09:06:26.197Z,76.59
2022-08-20T09:07:26.176Z,76.69
2022-08-20T09:08:26.180Z,77.39
2022-08-20T09:09:26.156Z,77.69
2022-08-20T09:10:26.144Z,77.15
2022-08-20T09:11:26.140Z,77.25
2022-08-20T09:12:26.121Z,77.09
2022-08-20T09:13:26.148Z,76.99
2022-08-20T09:14:26.098Z,76.59
2022-08-20T09:15:26.094Z,77.09
2022-08-20T09:16:26.084Z,76.79
2022-08-20T09:17:26.072Z,77.59
2022-08-20T09:18:26.075Z,77.59
2022-08-20T09:19:26.063Z,77.95
2022-08-20T09:20:27.152Z,78.05
2022-08-20T09:21:26.029Z,76.89
2022-08-20T09:22:26.012Z,76.65
2022-08-20T09:23:26.021Z,76.45
2022-08-20T09:24:25.994Z,77.06
2022-08-20T09:25:25.977Z,76.26
2022-08-20T09:26:29.183Z,75.96
2022-08-20T09:27:25.959Z,76.72
2022-08-20T09:28:25.970Z,76.56
2022-08-20T09:29:26.935Z,76.42
2022-08-20T09:30:25.920Z,76.32
2022-08-20T09:31:25.928Z,76.22
2022-08-20T09:32:26.095Z,76.22
2022-08-20T09:33:25.906Z,76.42
2022-08-20T09:34:25.881Z,76.32
2022-08-20T09:35:25.863Z,76.52
2022-08-20T09:36:32.102Z,76.12
2022-08-20T09:37:26.845Z,76.12
2022-08-20T09:38:25.844Z,76.12
2022-08-20T09:39:25.825Z,75.59
2022-08-20T09:40:25.867Z,75.28
2022-08-20T09:41:25.841Z,74.88
2022-08-20T09:42:25.805Z,75.74
2022-08-20T09:43:25.799Z,75.55
2022-08-20T09:44:25.771Z,74.95
2022-08-20T09:45:25.753Z,73.75
2022-08-20T09:46:26.974Z,74.45
2022-08-20T09:47:25.751Z,74.19
2022-08-20T09:48:32.108Z,74.15
2022-08-20T09:49:26.713Z,74.38
2022-08-20T09:50:25.697Z,74.65
2022-08-20T09:51:25.692Z,74.98
2022-08-20T09:52:25.674Z,75.28
2022-08-20T09:53:25.689Z,74.79
2022-08-20T09:54:25.655Z,74.75
2022-08-20T09:55:25.665Z,74.15
2022-08-20T09:56:25.632Z,75.15
2022-08-20T09:57:25.626Z,74.55
2022-08-20T09:58:25.635Z,74.55
2022-08-20T09:59:25.608Z,73.85
2022-08-20T10:00:25.593Z,73.85
2022-08-20T10:01:25.705Z,74.25
2022-08-20T10:02:25.564Z,74.15
2022-08-20T10:03:25.569Z,74.15
2022-08-20T10:04:26.078Z,73.65
2022-08-20T10:05:25.539Z,74.35
2022-08-20T10:06:25.536Z,73.85
2022-08-20T10:07:25.517Z,73.95
2022-08-20T10:08:25.513Z,74.25
2022-08-20T10:09:25.486Z,73.85
2022-08-20T10:10:25.483Z,74.05
2022-08-20T10:11:25.483Z,73.35
2022-08-20T10:12:25.462Z,73.45
2022-08-20T10:13:25.466Z,73.85
2022-08-20T10:14:25.456Z,73.95
2022-08-20T10:15:25.430Z,73.75
2022-08-20T10:16:25.424Z,73.75
2022-08-20T10:17:25.412Z,74.29
2022-08-20T10:18:25.401Z,74.25
2022-08-20T10:19:25.376Z,73.79
2022-08-20T10:20:25.364Z,73.99
2022-08-20T10:21:25.373Z,73.88
2022-08-20T10:22:25.347Z,73.69
2022-08-20T10:23:25.347Z,74.58
2022-08-20T10:24:25.321Z,74.08
2022-08-20T10:25:25.321Z,73.92
2022-08-20T10:26:25.370Z,73.62
2022-08-20T10:27:25.286Z,74.29
2022-08-20T10:28:25.294Z,73.79
2022-08-20T10:29:25.271Z,73.99
2022-08-20T10:30:25.271Z,73.79
2022-08-20T10:31:25.250Z,73.28
2022-08-20T10:32:25.230Z,72.09
2022-08-20T10:33:25.238Z,72.59
2022-08-20T10:34:25.218Z,73.35
2022-08-20T10:35:25.205Z,73.69
2022-08-20T10:36:25.187Z,71.79
2022-08-20T10:37:25.192Z,72.45
2022-08-20T10:38:25.178Z,72.05
2022-08-20T10:39:25.154Z,72.85
2022-08-20T10:40:25.242Z,72.05
2022-08-20T10:41:25.144Z,73.05
2022-08-20T10:42:25.133Z,72.65
2022-08-20T10:43:25.134Z,73.02
2022-08-20T10:44:25.100Z,72.52
2022-08-20T10:45:25.094Z,72.02
2022-08-20T10:46:25.089Z,71.09
2022-08-20T10:47:25.073Z,72.38
2022-08-20T10:48:25.072Z,71.32
2022-08-20T10:49:25.043Z,70.83
2022-08-20T10:50:25.040Z,71.62
2022-08-20T10:51:32.290Z,71.02
2022-08-20T10:52:26.016Z,71.69
2022-08-20T10:53:25.014Z,71.48
2022-08-20T10:54:24.997Z,71.35
2022-08-20T10:55:24.978Z,71.45
2022-08-20T10:56:24.973Z,70.92
2022-08-20T10:57:24.960Z,70.45
2022-08-20T10:58:24.959Z,70.42
2022-08-20T10:59:24.934Z,69.53
2022-08-20T11:00:24.986Z,70.03
2022-08-20T11:01:32.956Z,69.23
2022-08-20T11:02:25.939Z,69.79
2022-08-20T11:03:24.919Z,69.89
2022-08-20T11:04:24.879Z,69.16
2022-08-20T11:05:24.872Z,69.16
2022-08-20T11:06:24.859Z,68.27
2022-08-20T11:07:49.503Z,67.37
2022-08-20T11:08:34.318Z,67.27
2022-08-20T11:09:25.820Z,67.54
2022-08-20T11:10:24.818Z,67.93
2022-08-20T11:11:24.807Z,68.04
2022-08-20T11:12:24.792Z,67.90
2022-08-20T11:13:24.776Z,68.57
2022-08-20T11:14:24.786Z,67.34
2022-08-20T11:15:24.762Z,66.91
2022-08-20T11:16:24.748Z,65.78
2022-08-20T11:17:24.731Z,64.76
2022-08-20T11:18:24.726Z,64.17
2022-08-20T11:19:24.753Z,62.35
2022-08-20T11:20:24.705Z,62.98
2022-08-20T11:21:24.686Z,63.54
2022-08-20T11:22:24.679Z,63.45
2022-08-20T11:23:24.673Z,63.54
2022-08-20T11:24:24.676Z,62.85
2022-08-20T11:25:24.647Z,63.57
2022-08-20T11:26:24.656Z,63.57
2022-08-20T11:27:24.625Z,63.08
2022-08-20T11:28:31.553Z,63.18
2022-08-20T11:29:25.617Z,63.77
2022-08-20T11:30:24.586Z,63.51
2022-08-20T11:31:24.576Z,63.70
2022-08-20T11:32:24.579Z,63.90
2022-08-20T11:33:24.712Z,63.67
2022-08-20T11:34:25.559Z,62.88
2022-08-20T11:35:42.285Z,62.78
2022-08-20T11:36:25.524Z,62.38
2022-08-20T11:37:24.517Z,61.86
2022-08-20T11:38:24.497Z,61.04
2022-08-20T11:39:24.507Z,60.64
2022-08-20T11:40:24.527Z,60.41
2022-08-20T11:41:24.471Z,59.99
2022-08-20T11:42:24.460Z,60.19
2022-08-20T11:43:24.443Z,60.45
2022-08-20T11:44:24.461Z,59.56
2022-08-20T11:45:24.428Z,58.94
2022-08-20T11:46:28.430Z,58.81
2022-08-20T11:47:24.408Z,58.32
2022-08-20T11:48:24.389Z,58.51
2022-08-20T11:49:24.399Z,58.22
2022-08-20T11:50:24.368Z,57.92
2022-08-20T11:51:24.357Z,58.64
2022-08-20T11:52:24.352Z,58.61
2022-08-20T11:53:24.347Z,57.89
2022-08-20T11:54:24.339Z,57.92
2022-08-20T11:55:29.951Z,58.49
2022-08-20T11:56:25.303Z,56.78
2022-08-20T11:57:24.290Z,56.38
2022-08-20T11:58:24.278Z,57.15
2022-08-20T11:59:24.282Z,56.56
2022-08-20T12:00:33.561Z,55.99
2022-08-20T12:01:25.245Z,56.38
2022-08-20T12:02:24.292Z,57.20
2022-08-20T12:03:24.334Z,57.62
2022-08-20T12:04:25.236Z,58.81
2022-08-20T12:05:24.211Z,58.22
2022-08-20T12:06:24.199Z,57.79
2022-08-20T12:07:24.179Z,56.81
2022-08-20T12:08:26.654Z,56.71
2022-08-20T12:09:24.890Z,56.68
2022-08-20T12:10:24.152Z,56.68
2022-08-20T12:11:24.138Z,56.26
2022-08-20T12:12:24.145Z,55.83
2022-08-20T12:13:25.275Z,55.94
2022-08-20T12:14:25.115Z,55.64
2022-08-20T12:15:24.104Z,54.72
2022-08-20T12:16:24.088Z,54.72
2022-08-20T12:17:24.078Z,54.72
2022-08-20T12:18:24.066Z,54.72
2022-08-20T12:19:24.091Z,54.93
2022-08-20T12:20:24.041Z,54.63
2022-08-20T12:21:24.033Z,54.90
2022-08-20T12:22:25.076Z,54.08
2022-08-20T12:23:24.008Z,53.99
2022-08-20T12:24:23.993Z,53.27
2022-08-20T12:25:23.999Z,53.36
2022-08-20T12:26:23.987Z,52.28
2022-08-20T12:27:23.963Z,52.48
2022-08-20T12:28:26.004Z,52.28
2022-08-20T12:29:23.950Z,53.07
2022-08-20T12:30:23.947Z,52.68
2022-08-20T12:31:23.920Z,52.50
2022-08-20T12:32:23.905Z,52.63
2022-08-20T12:33:23.903Z,53.15
2022-08-20T12:34:23.892Z,54.03
2022-08-20T12:35:23.889Z,54.06
2022-08-20T12:36:23.863Z,54.48
2022-08-20T12:37:23.852Z,54.80
2022-08-20T12:38:23.857Z,55.43
2022-08-20T12:39:23.839Z,56.02
2022-08-20T12:40:30.620Z,56.02
2022-08-20T12:41:24.811Z,55.62
2022-08-20T12:42:23.804Z,55.03
2022-08-20T12:43:25.177Z,56.14
2022-08-20T12:44:23.782Z,55.65
2022-08-20T12:45:23.779Z,56.57
2022-08-20T12:46:23.760Z,56.99
2022-08-20T12:47:23.750Z,57.09
2022-08-20T12:48:23.736Z,57.09
2022-08-20T12:49:23.720Z,56.59
2022-08-20T12:50:23.729Z,56.52
2022-08-20T12:51:23.705Z,56.79
2022-08-20T12:52:23.691Z,57.02